Time;durP1;ratioP1;P1;durP2;ratioP2;P2;SDS_P1;SDS_P2;PMS_P1;PMS_P2;Temp;Humidity;BMP_temperature;BMP_pressure;BME280_temperature;BME280_humidity;BME280_pressure;Samples;Min_cycle;Max_cycle;Signal;HPM_P1;HPM_P2
2023/12/09 00:01:11;;;;;;;;;;;15.00;85.50;;;;;;5055905;28;20371;-73
2023/12/09 00:03:37;;;;;;;;;;;14.90;85.90;;;;;;5055887;28;19928;-73
2023/12/09 00:06:04;;;;;;;;;;;15.00;85.90;;;;;;5055831;28;19908;-72
2023/12/09 00:08:29;;;;;;;;;;;15.00;84.80;;;;;;5055844;28;20045;-73
2023/12/09 00:10:54;;;;;;;;;;;14.90;85.50;;;;;;5055809;28;20595;-73
2023/12/09 00:13:20;;;;;;;;;;;15.00;85.80;;;;;;5055682;28;19943;-73
2023/12/09 00:15:45;;;;;;;;;;;14.90;85.70;;;;;;5055651;28;20032;-73
2023/12/09 00:18:11;;;;;;;;;;;15.00;85.80;;;;;;5055674;28;19909;-76
2023/12/09 00:20:36;;;;;;;;;;;15.00;86.00;;;;;;5055994;28;19913;-77
2023/12/09 00:23:02;;;;;;;;;;;14.90;85.90;;;;;;5055932;28;19909;-77
2023/12/09 00:25:27;;;;;;;;;;;15.10;85.80;;;;;;5055708;28;19927;-77
2023/12/09 00:27:53;;;;;;;;;;;15.00;85.80;;;;;;5055940;28;19912;-77
2023/12/09 00:30:18;;;;;;;;;;;15.00;85.80;;;;;;5055727;28;20327;-77
2023/12/09 00:32:44;;;;;;;;;;;15.20;85.90;;;;;;5055596;28;19909;-77
2023/12/09 00:35:10;;;;;;;;;;;15.00;85.80;;;;;;5056224;28;20019;-73
2023/12/09 00:37:36;;;;;;;;;;;15.00;85.60;;;;;;5055280;28;19908;-73
2023/12/09 00:40:01;;;;;;;;;;;14.90;85.90;;;;;;5055236;28;20004;-73
2023/12/09 00:42:27;;;;;;;;;;;15.00;85.60;;;;;;5054474;28;20272;-73
2023/12/09 00:44:52;;;;;;;;;;;15.00;85.70;;;;;;5055198;28;20371;-73
2023/12/09 00:47:18;;;;;;;;;;;15.00;85.60;;;;;;5055520;28;19909;-77
2023/12/09 00:49:43;;;;;;;;;;;15.10;85.80;;;;;;5055371;28;19943;-76
2023/12/09 00:52:10;;;;;;;;;;;15.00;85.70;;;;;;5055186;28;19912;-76
2023/12/09 00:54:35;;;;;;;;;;;14.90;85.60;;;;;;5055013;28;20371;-76
2023/12/09 00:57:01;;;;;;;;;;;14.90;85.50;;;;;;5055212;28;19953;-77
2023/12/09 00:59:27;;;;;;;;;;;14.90;85.60;;;;;;5055314;28;19915;-76
2023/12/09 01:01:52;;;;;;;;;;;14.90;85.30;;;;;;5055195;28;19909;-76
2023/12/09 01:04:17;;;;;;;;;;;14.90;85.70;;;;;;5055473;28;20284;-73
2023/12/09 01:06:43;;;;;;;;;;;15.00;85.50;;;;;;5055021;28;19912;-73
2023/12/09 01:09:08;;;;;;;;;;;15.00;85.60;;;;;;5054685;28;19912;-73
2023/12/09 01:11:34;;;;;;;;;;;15.00;85.60;;;;;;5054624;28;19913;-73
2023/12/09 01:13:59;;;;;;;;;;;14.90;85.50;;;;;;5054560;28;20298;-72
2023/12/09 01:16:25;;;;;;;;;;;14.90;85.50;;;;;;5054742;28;19916;-76
2023/12/09 01:18:50;;;;;;;;;;;14.90;85.10;;;;;;5054587;28;20329;-76
2023/12/09 01:21:16;;;;;;;;;;;14.90;85.50;;;;;;5054666;28;19908;-76
2023/12/09 01:23:41;;;;;;;;;;;15.00;85.60;;;;;;5054480;28;20322;-76
2023/12/09 01:26:07;;;;;;;;;;;14.90;85.00;;;;;;5054578;28;19915;-76
2023/12/09 01:28:33;;;;;;;;;;;15.00;85.50;;;;;;5054414;28;19915;-77
2023/12/09 01:30:59;;;;;;;;;;;15.00;85.50;;;;;;5054425;28;20346;-77
2023/12/09 01:33:24;;;;;;;;;;;14.90;85.30;;;;;;5054768;28;19909;-73
2023/12/09 01:35:49;;;;;;;;;;;15.00;85.40;;;;;;5054054;28;19917;-73
2023/12/09 01:38:15;;;;;;;;;;;14.90;85.30;;;;;;5054464;28;19944;-73
2023/12/09 01:40:42;;;;;;;;;;;14.90;85.20;;;;;;5054381;28;19955;-73
2023/12/09 01:43:09;;;;;;;;;;;15.10;84.80;;;;;;5054372;28;19916;-73
2023/12/09 01:45:35;;;;;;;;;;;15.00;85.60;;;;;;5054104;28;19916;-77
2023/12/09 01:48:01;;;;;;;;;;;14.90;85.00;;;;;;5054361;28;19909;-77
2023/12/09 01:50:27;;;;;;;;;;;15.00;85.10;;;;;;5054207;28;19909;-76
2023/12/09 01:52:53;;;;;;;;;;;14.90;85.50;;;;;;5053653;28;19928;-78
2023/12/09 01:55:18;;;;;;;;;;;14.90;85.10;;;;;;5053194;28;19916;-76
2023/12/09 01:57:44;;;;;;;;;;;14.90;85.10;;;;;;5053910;28;19909;-76
2023/12/09 02:00:10;;;;;;;;;;;14.90;85.40;;;;;;5053743;28;19913;-77
2023/12/09 02:02:36;;;;;;;;;;;14.80;84.70;;;;;;5054530;28;19916;-77
2023/12/09 02:05:03;;;;;;;;;;;14.90;85.20;;;;;;5053781;28;20297;-77
2023/12/09 02:07:29;;;;;;;;;;;14.90;85.00;;;;;;5053734;28;19931;-77
2023/12/09 02:09:55;;;;;;;;;;;14.40;84.70;;;;;;5053798;28;19909;-77
2023/12/09 02:12:32;;;;;;;;;;;14.90;85.20;;;;;;5054002;28;19921;-76
2023/12/09 02:15:11;;;;;;;;;;;14.80;79.70;;;;;;5054072;28;19943;-77
2023/12/09 02:17:41;;;;;;;;;;;14.90;85.10;;;;;;5053793;28;19908;-77
2023/12/09 02:20:07;;;;;;;;;;;14.90;85.20;;;;;;5053636;28;19909;-76
2023/12/09 02:22:33;;;;;;;;;;;14.90;83.30;;;;;;5053692;28;19909;-77
2023/12/09 02:24:59;;;;;;;;;;;14.90;84.90;;;;;;5053152;28;19975;-76
2023/12/09 02:27:31;;;;;;;;;;;14.90;85.10;;;;;;5053307;28;19916;-77
2023/12/09 02:30:02;;;;;;;;;;;14.90;85.40;;;;;;5053995;28;20054;-72
2023/12/09 02:32:30;;;;;;;;;;;14.80;79.90;;;;;;5053423;28;19909;-72
2023/12/09 02:34:56;;;;;;;;;;;14.80;85.80;;;;;;5052938;28;20002;-73
2023/12/09 02:37:22;;;;;;;;;;;14.90;85.70;;;;;;5053124;28;19968;-73
2023/12/09 02:39:48;;;;;;;;;;;14.80;85.70;;;;;;5053014;28;19916;-73
2023/12/09 02:42:14;;;;;;;;;;;14.70;85.30;;;;;;5053376;28;19908;-77
2023/12/09 02:44:42;;;;;;;;;;;14.80;85.80;;;;;;5053137;28;19912;-77
2023/12/09 02:47:14;;;;;;;;;;;14.90;85.90;;;;;;5052825;28;20384;-76
2023/12/09 02:49:40;;;;;;;;;;;14.80;80.30;;;;;;5053028;28;19912;-76
2023/12/09 02:52:07;;;;;;;;;;;14.80;85.80;;;;;;5052842;28;19908;-76
2023/12/09 02:54:32;;;;;;;;;;;14.70;85.60;;;;;;5053008;28;19917;-76
2023/12/09 02:56:58;;;;;;;;;;;14.80;85.60;;;;;;5053076;28;19962;-76
2023/12/09 02:59:24;;;;;;;;;;;14.80;85.40;;;;;;5053211;28;19908;-76
2023/12/09 03:01:50;;;;;;;;;;;14.90;85.20;;;;;;5052597;28;19927;-75
2023/12/09 03:04:16;;;;;;;;;;;14.80;85.90;;;;;;5052978;28;19916;-76
2023/12/09 03:06:42;;;;;;;;;;;14.80;85.40;;;;;;5052681;28;20257;-77
2023/12/09 03:09:08;;;;;;;;;;;14.80;85.30;;;;;;5052586;28;19916;-74
2023/12/09 03:11:33;;;;;;;;;;;14.80;85.40;;;;;;5052559;28;19908;-74
2023/12/09 03:13:59;;;;;;;;;;;14.80;85.10;;;;;;5052622;28;19924;-74
2023/12/09 03:16:25;;;;;;;;;;;14.80;85.30;;;;;;5052764;28;19909;-73
2023/12/09 03:18:51;;;;;;;;;;;14.80;85.60;;;;;;5052657;28;19912;-73
2023/12/09 03:21:17;;;;;;;;;;;14.80;85.50;;;;;;5052402;28;19909;-74
2023/12/09 03:23:43;;;;;;;;;;;14.80;85.60;;;;;;5052299;28;20432;-74
2023/12/09 03:26:15;;;;;;;;;;;14.70;84.90;;;;;;5052433;28;20249;-76
2023/12/09 03:28:42;;;;;;;;;;;14.80;80.30;;;;;;5052459;28;19984;-77
2023/12/09 03:31:11;;;;;;;;;;;14.80;85.10;;;;;;5052377;28;20394;-77
2023/12/09 03:33:37;;;;;;;;;;;14.80;85.10;;;;;;5052629;28;19987;-77
2023/12/09 03:36:04;;;;;;;;;;;14.80;85.00;;;;;;5052652;28;19938;-77
2023/12/09 03:38:30;;;;;;;;;;;14.80;85.10;;;;;;5052676;28;20217;-77
2023/12/09 03:40:56;;;;;;;;;;;14.90;85.30;;;;;;5052625;28;19908;-77
2023/12/09 03:43:22;;;;;;;;;;;14.70;84.60;;;;;;5052300;28;20352;-77
2023/12/09 03:45:48;;;;;;;;;;;14.80;84.80;;;;;;5052243;28;19909;-77
2023/12/09 03:48:14;;;;;;;;;;;14.70;84.90;;;;;;5052461;28;19908;-77
2023/12/09 03:50:40;;;;;;;;;;;14.80;85.40;;;;;;5050985;28;19932;-77
2023/12/09 03:53:05;;;;;;;;;;;14.70;84.90;;;;;;5052265;28;19909;-76
2023/12/09 03:55:30;;;;;;;;;;;14.80;85.20;;;;;;5052675;28;19917;-76
2023/12/09 03:57:56;;;;;;;;;;;14.70;85.00;;;;;;5052339;28;20021;-76
2023/12/09 04:00:22;;;;;;;;;;;14.70;84.50;;;;;;5052643;28;19916;-76
2023/12/09 04:02:48;;;;;;;;;;;14.70;84.60;;;;;;5052025;28;19908;-77
2023/12/09 04:05:13;;;;;;;;;;;14.70;84.80;;;;;;5052035;28;20330;-76
2023/12/09 04:07:42;;;;;;;;;;;14.70;84.90;;;;;;5052402;28;19919;-76
2023/12/09 04:10:09;;;;;;;;;;;14.70;84.70;;;;;;5051952;28;19908;-73
2023/12/09 04:12:34;;;;;;;;;;;14.70;84.60;;;;;;5051908;28;20394;-73
2023/12/09 04:15:01;;;;;;;;;;;14.70;84.50;;;;;;5051837;28;19916;-72
2023/12/09 04:17:26;;;;;;;;;;;14.70;84.50;;;;;;5052101;28;19909;-72
2023/12/09 04:19:52;;;;;;;;;;;14.70;84.60;;;;;;5055639;28;19916;-72
2023/12/09 04:22:18;;;;;;;;;;;14.70;84.60;;;;;;5055593;28;19913;-73
2023/12/09 04:24:43;;;;;;;;;;;14.70;84.60;;;;;;5055942;28;19928;-75
2023/12/09 04:27:09;;;;;;;;;;;14.70;84.30;;;;;;5055558;28;19915;-76
2023/12/09 04:29:34;;;;;;;;;;;14.70;84.80;;;;;;5055485;28;19909;-77
2023/12/09 04:31:59;;;;;;;;;;;14.60;84.60;;;;;;5055438;28;19917;-76
2023/12/09 04:34:25;;;;;;;;;;;14.60;84.40;;;;;;5055323;28;19924;-76
2023/12/09 04:36:50;;;;;;;;;;;14.70;84.50;;;;;;5055439;28;20410;-76
2023/12/09 04:39:16;;;;;;;;;;;14.60;84.40;;;;;;5055269;28;19962;-76
2023/12/09 04:41:42;;;;;;;;;;;14.70;84.20;;;;;;5055310;28;20367;-76
2023/12/09 04:44:08;;;;;;;;;;;14.60;84.40;;;;;;5055126;28;20046;-76
2023/12/09 04:46:34;;;;;;;;;;;14.40;84.50;;;;;;5055460;28;19952;-76
2023/12/09 04:49:00;;;;;;;;;;;14.60;84.30;;;;;;5055341;28;19912;-76
2023/12/09 04:51:26;;;;;;;;;;;14.70;84.20;;;;;;5055829;28;19916;-76
2023/12/09 04:53:52;;;;;;;;;;;14.60;84.70;;;;;;5055240;28;19909;-76
2023/12/09 04:56:18;;;;;;;;;;;14.60;84.30;;;;;;5055274;28;19909;-76
2023/12/09 04:58:45;;;;;;;;;;;14.60;84.30;;;;;;5055177;28;20016;-76
2023/12/09 05:01:11;;;;;;;;;;;14.60;84.30;;;;;;5055172;28;19916;-76
2023/12/09 05:03:36;;;;;;;;;;;14.60;84.20;;;;;;5055210;28;20279;-76
2023/12/09 05:06:04;;;;;;;;;;;14.60;84.30;;;;;;5054810;28;19909;-76
2023/12/09 05:08:30;;;;;;;;;;;14.60;84.10;;;;;;5054684;28;20379;-76
2023/12/09 05:10:56;;;;;;;;;;;14.60;84.20;;;;;;5055076;28;19909;-77
2023/12/09 05:13:22;;;;;;;;;;;14.60;84.10;;;;;;5054915;28;19909;-77
2023/12/09 05:15:50;;;;;;;;;;;14.60;84.40;;;;;;5054929;28;19916;-77
2023/12/09 05:18:16;;;;;;;;;;;14.60;84.30;;;;;;5054859;28;19909;-77
2023/12/09 05:20:44;;;;;;;;;;;14.60;84.00;;;;;;5055369;28;20283;-73
2023/12/09 05:23:09;;;;;;;;;;;14.60;84.10;;;;;;5054405;28;19913;-73
2023/12/09 05:25:35;;;;;;;;;;;14.60;84.10;;;;;;5054117;28;19929;-73
2023/12/09 05:28:01;;;;;;;;;;;14.50;84.20;;;;;;5054141;28;19909;-73
2023/12/09 05:30:28;;;;;;;;;;;14.40;84.10;;;;;;5054528;28;19913;-73
2023/12/09 05:32:53;;;;;;;;;;;14.60;84.20;;;;;;5054412;28;20376;-77
2023/12/09 05:35:19;;;;;;;;;;;14.60;84.10;;;;;;5054242;28;20016;-76
2023/12/09 05:37:45;;;;;;;;;;;14.60;84.20;;;;;;5054346;28;19913;-76
2023/12/09 05:40:11;;;;;;;;;;;14.60;84.60;;;;;;5054528;28;19909;-76
2023/12/09 05:42:37;;;;;;;;;;;14.60;84.10;;;;;;5054318;28;19970;-76
2023/12/09 05:45:03;;;;;;;;;;;14.60;84.00;;;;;;5054078;28;20376;-77
2023/12/09 05:47:29;;;;;;;;;;;14.60;84.10;;;;;;5054469;28;19909;-77
2023/12/09 05:49:54;;;;;;;;;;;14.60;84.10;;;;;;5054552;28;19908;-73
2023/12/09 05:52:20;;;;;;;;;;;14.60;84.20;;;;;;5053944;28;19912;-73
2023/12/09 05:54:45;;;;;;;;;;;14.60;84.50;;;;;;5053743;28;20402;-73
2023/12/09 05:57:10;;;;;;;;;;;14.60;84.40;;;;;;5053863;28;19908;-73
2023/12/09 05:59:36;;;;;;;;;;;14.60;84.10;;;;;;5053718;28;20360;-72
2023/12/09 06:02:03;;;;;;;;;;;14.70;84.10;;;;;;5053709;28;20117;-72
2023/12/09 06:04:28;;;;;;;;;;;14.60;83.80;;;;;;5053588;28;19909;-73
2023/12/09 06:06:54;;;;;;;;;;;14.60;84.10;;;;;;5053618;28;19908;-72
2023/12/09 06:09:19;;;;;;;;;;;14.60;84.10;;;;;;5053516;28;19942;-73
2023/12/09 06:11:45;;;;;;;;;;;14.60;84.60;;;;;;5053451;28;19971;-73
2023/12/09 06:14:10;;;;;;;;;;;14.70;84.50;;;;;;5053382;28;19919;-73
2023/12/09 06:16:36;;;;;;;;;;;14.60;83.90;;;;;;5053651;28;19909;-72
2023/12/09 06:19:02;;;;;;;;;;;14.60;84.00;;;;;;5054151;28;20386;-73
2023/12/09 06:21:28;;;;;;;;;;;14.70;84.20;;;;;;5053622;28;19909;-73
2023/12/09 06:23:54;;;;;;;;;;;14.70;84.30;;;;;;5053060;28;19927;-72
2023/12/09 06:26:20;;;;;;;;;;;14.60;83.90;;;;;;5053268;28;19920;-73
2023/12/09 06:28:46;;;;;;;;;;;14.70;84.20;;;;;;5053526;28;19946;-76
2023/12/09 06:31:12;;;;;;;;;;;14.60;83.80;;;;;;5053636;28;20435;-77
2023/12/09 06:33:38;;;;;;;;;;;14.70;84.50;;;;;;5053430;28;19909;-76
2023/12/09 06:36:05;;;;;;;;;;;14.70;84.40;;;;;;5053497;28;20007;-76
2023/12/09 06:38:32;;;;;;;;;;;14.70;82.70;;;;;;5053189;28;19961;-76
2023/12/09 06:40:58;;;;;;;;;;;14.60;83.90;;;;;;5052874;28;20283;-76
2023/12/09 06:43:24;;;;;;;;;;;14.70;84.10;;;;;;5053386;28;19909;-76
2023/12/09 06:45:50;;;;;;;;;;;14.70;83.80;;;;;;5053692;28;20279;-73
2023/12/09 06:48:15;;;;;;;;;;;14.70;84.20;;;;;;5053180;28;19909;-72
2023/12/09 06:50:42;;;;;;;;;;;14.60;83.80;;;;;;5052711;28;19909;-72
2023/12/09 06:53:12;;;;;;;;;;;14.60;83.70;;;;;;5053087;28;19908;-73
2023/12/09 06:55:38;;;;;;;;;;;14.70;84.60;;;;;;5053018;28;19917;-73
2023/12/09 06:58:03;;;;;;;;;;;14.60;84.00;;;;;;5052857;28;20280;-76
2023/12/09 07:00:28;;;;;;;;;;;14.60;84.10;;;;;;5052925;28;19909;-76
2023/12/09 07:02:54;;;;;;;;;;;14.60;83.80;;;;;;5052710;28;19931;-76
2023/12/09 07:05:20;;;;;;;;;;;14.60;84.00;;;;;;5052820;28;20012;-76
2023/12/09 07:07:48;;;;;;;;;;;14.60;84.10;;;;;;5052759;28;19931;-76
2023/12/09 07:10:14;;;;;;;;;;;14.70;84.40;;;;;;5052954;28;19909;-76
2023/12/09 07:12:39;;;;;;;;;;;14.50;83.80;;;;;;5053066;28;20391;-76
2023/12/09 07:15:05;;;;;;;;;;;14.30;83.70;;;;;;5053210;28;19917;-77
2023/12/09 07:17:31;;;;;;;;;;;14.70;84.00;;;;;;5052974;28;19909;-76
2023/12/09 07:19:59;;;;;;;;;;;14.60;84.00;;;;;;5052628;28;19916;-76
2023/12/09 07:22:25;;;;;;;;;;;14.70;84.40;;;;;;5052981;28;20308;-76
2023/12/09 07:24:50;;;;;;;;;;;14.60;84.00;;;;;;5052611;28;20086;-75
2023/12/09 07:27:16;;;;;;;;;;;14.60;84.00;;;;;;5053873;28;19995;-74
2023/12/09 07:29:41;;;;;;;;;;;14.70;84.60;;;;;;5055945;28;20291;-73
2023/12/09 07:32:07;;;;;;;;;;;14.60;84.00;;;;;;5052317;28;19916;-72
2023/12/09 07:34:32;;;;;;;;;;;14.70;84.50;;;;;;5052230;28;19939;-72
2023/12/09 07:36:58;;;;;;;;;;;14.60;84.00;;;;;;5052489;28;19909;-72
2023/12/09 07:39:23;;;;;;;;;;;14.70;84.10;;;;;;5052241;28;20421;-72
2023/12/09 07:41:52;;;;;;;;;;;14.70;84.20;;;;;;5052252;28;19912;-71
2023/12/09 07:44:19;;;;;;;;;;;14.60;83.90;;;;;;5052838;28;19909;-76
2023/12/09 07:46:45;;;;;;;;;;;14.60;84.30;;;;;;5052314;28;19909;-77
2023/12/09 07:49:10;;;;;;;;;;;14.60;84.20;;;;;;5052186;28;19916;-76
2023/12/09 07:51:36;;;;;;;;;;;14.60;85.00;;;;;;5054228;28;20364;-76
2023/12/09 07:54:01;;;;;;;;;;;14.60;84.50;;;;;;5056076;28;20099;-77
2023/12/09 07:56:27;;;;;;;;;;;14.70;84.60;;;;;;5056207;28;19970;-75
2023/12/09 07:58:52;;;;;;;;;;;14.60;84.90;;;;;;5056166;28;19909;-75
2023/12/09 08:01:18;;;;;;;;;;;14.60;85.00;;;;;;5056249;28;20311;-75
2023/12/09 08:03:43;;;;;;;;;;;14.60;84.70;;;;;;5056082;28;19993;-74
2023/12/09 08:06:10;;;;;;;;;;;14.60;84.90;;;;;;5055899;28;19966;-75
2023/12/09 08:08:35;;;;;;;;;;;14.60;85.10;;;;;;5055867;28;19909;-75
2023/12/09 08:11:01;;;;;;;;;;;14.60;85.00;;;;;;5056346;28;19909;-72
2023/12/09 08:13:26;;;;;;;;;;;14.60;85.10;;;;;;5055723;28;19948;-72
2023/12/09 08:15:52;;;;;;;;;;;14.70;85.60;;;;;;5055698;28;19917;-72
2023/12/09 08:18:17;;;;;;;;;;;14.70;85.00;;;;;;5055713;28;20363;-72
2023/12/09 08:20:43;;;;;;;;;;;14.70;85.00;;;;;;5055641;28;19909;-72
2023/12/09 08:23:08;;;;;;;;;;;14.70;85.30;;;;;;5055664;28;20347;-72
2023/12/09 08:25:34;;;;;;;;;;;14.70;85.20;;;;;;5055352;28;19924;-72
2023/12/09 08:27:59;;;;;;;;;;;14.70;85.00;;;;;;5055556;28;19913;-72
2023/12/09 08:30:25;;;;;;;;;;;14.70;85.50;;;;;;5055447;28;19909;-72
2023/12/09 08:32:50;;;;;;;;;;;14.70;85.30;;;;;;5055472;28;19916;-72
2023/12/09 08:35:16;;;;;;;;;;;14.70;85.20;;;;;;5055510;28;20368;-72
2023/12/09 08:37:42;;;;;;;;;;;14.80;85.50;;;;;;5055629;28;19916;-72
2023/12/09 08:40:12;;;;;;;;;;;14.70;84.90;;;;;;5055663;28;20356;-73
2023/12/09 08:42:42;;;;;;;;;;;14.70;84.90;;;;;;5055196;28;19915;-73
2023/12/09 08:45:09;;;;;;;;;;;14.70;84.70;;;;;;5055125;28;19909;-73
2023/12/09 08:47:36;;;;;;;;;;;14.70;84.80;;;;;;5055098;28;20351;-73
2023/12/09 08:50:03;;;;;;;;;;;14.70;85.60;;;;;;5055396;28;19909;-73
2023/12/09 08:52:30;;;;;;;;;;;14.80;85.30;;;;;;5055084;28;20414;-72
2023/12/09 08:54:56;;;;;;;;;;;14.70;85.00;;;;;;5054860;28;20354;-72
2023/12/09 08:57:22;;;;;;;;;;;14.70;85.00;;;;;;5054932;28;20043;-72
2023/12/09 08:59:48;;;;;;;;;;;14.70;84.90;;;;;;5054927;28;20356;-73
2023/12/09 09:02:14;;;;;;;;;;;14.70;84.80;;;;;;5054541;28;19916;-86
2023/12/09 09:04:39;;;;;;;;;;;14.90;85.40;;;;;;5054412;28;19959;-72
2023/12/09 09:07:05;;;;;;;;;;;14.70;84.80;;;;;;5054874;28;19916;-71
2023/12/09 09:09:30;;;;;;;;;;;14.70;84.80;;;;;;5055183;28;19915;-74
2023/12/09 09:11:56;;;;;;;;;;;14.70;84.80;;;;;;5054847;28;19909;-77
2023/12/09 09:14:21;;;;;;;;;;;14.80;85.20;;;;;;5054584;28;20012;-77
2023/12/09 09:16:47;;;;;;;;;;;14.70;84.80;;;;;;5057820;28;19916;-76
2023/12/09 09:19:12;;;;;;;;;;;14.80;85.20;;;;;;5056339;28;19909;-71
2023/12/09 09:21:40;;;;;;;;;;;14.70;84.80;;;;;;5054574;28;19909;-76
2023/12/09 09:24:09;;;;;;;;;;;14.70;84.50;;;;;;5054152;28;19921;-77
2023/12/09 09:26:35;;;;;;;;;;;14.70;85.00;;;;;;5054607;28;19951;-75
2023/12/09 09:29:01;;;;;;;;;;;14.70;85.70;;;;;;5054300;28;20015;-76
2023/12/09 09:31:27;;;;;;;;;;;14.80;84.70;;;;;;5054239;28;19951;-74
2023/12/09 09:33:53;;;;;;;;;;;14.70;84.60;;;;;;5054804;28;19909;-77
2023/12/09 09:36:20;;;;;;;;;;;14.80;84.90;;;;;;5058349;28;19909;-74
2023/12/09 09:38:47;;;;;;;;;;;14.70;84.90;;;;;;5054502;28;20047;-77
2023/12/09 09:41:21;;;;;;;;;;;14.70;84.90;;;;;;5054285;28;19962;-80
2023/12/09 09:43:52;;;;;;;;;;;14.80;84.80;;;;;;5054236;28;19936;-77
2023/12/09 09:46:20;;;;;;;;;;;14.70;85.50;;;;;;5054571;28;20077;-76
2023/12/09 09:48:50;;;;;;;;;;;14.70;84.60;;;;;;5054064;28;20395;-78
2023/12/09 09:51:18;;;;;;;;;;;14.80;85.50;;;;;;5052833;28;20368;-75
2023/12/09 09:53:55;;;;;;;;;;;14.70;84.80;;;;;;5052629;28;19913;-75
2023/12/09 09:56:21;;;;;;;;;;;;;;;;;;5052909;28;19928;-75
2023/12/09 09:58:47;;;;;;;;;;;14.80;84.80;;;;;;5054049;28;20376;-75
2023/12/09 10:01:14;;;;;;;;;;;14.70;84.60;;;;;;5052496;28;19912;-75
2023/12/09 10:03:40;;;;;;;;;;;14.80;84.80;;;;;;5052368;28;19917;-75
2023/12/09 10:06:06;;;;;;;;;;;14.70;84.70;;;;;;5054112;28;19909;-72
2023/12/09 10:08:31;;;;;;;;;;;14.80;84.80;;;;;;5053505;28;19913;-71
2023/12/09 10:10:57;;;;;;;;;;;14.70;84.60;;;;;;5053397;28;19952;-72
2023/12/09 10:13:23;;;;;;;;;;;14.70;84.80;;;;;;5053448;28;20012;-72
2023/12/09 10:15:49;;;;;;;;;;;14.70;84.70;;;;;;5052726;28;19921;-71
2023/12/09 10:18:15;;;;;;;;;;;14.80;85.30;;;;;;5053789;28;19916;-75
2023/12/09 10:20:43;;;;;;;;;;;14.70;85.00;;;;;;5053309;28;20287;-76
2023/12/09 10:23:09;;;;;;;;;;;14.90;84.80;;;;;;5053281;28;19999;-79
2023/12/09 10:25:35;;;;;;;;;;;14.70;84.90;;;;;;5053067;28;20005;-77
2023/12/09 10:28:00;;;;;;;;;;;14.80;85.00;;;;;;5053203;28;19916;-76
2023/12/09 10:30:27;;;;;;;;;;;14.70;85.20;;;;;;5053480;28;19909;-77
2023/12/09 10:32:52;;;;;;;;;;;14.80;85.10;;;;;;5053056;28;19909;-77
2023/12/09 10:35:18;;;;;;;;;;;14.80;85.10;;;;;;5053509;28;19917;-73
2023/12/09 10:37:43;;;;;;;;;;;14.80;85.20;;;;;;5052947;28;19909;-73
2023/12/09 10:40:10;;;;;;;;;;;14.80;85.30;;;;;;5051650;28;19920;-73
2023/12/09 10:42:37;;;;;;;;;;;14.70;83.20;;;;;;5052795;28;19909;-74
2023/12/09 10:45:04;;;;;;;;;;;14.90;85.30;;;;;;5053148;28;19908;-74
2023/12/09 10:47:30;;;;;;;;;;;14.70;84.40;;;;;;5053042;28;19913;-73
2023/12/09 10:49:56;;;;;;;;;;;14.70;85.00;;;;;;5052905;28;20305;-72
2023/12/09 10:52:22;;;;;;;;;;;14.80;85.20;;;;;;5053004;28;19909;-72
2023/12/09 10:54:48;;;;;;;;;;;14.80;84.90;;;;;;5052750;28;19969;-72
2023/12/09 10:57:15;;;;;;;;;;;14.70;85.20;;;;;;5052628;28;20283;-71
2023/12/09 10:59:41;;;;;;;;;;;14.70;84.90;;;;;;5052938;28;20287;-71
2023/12/09 11:02:08;;;;;;;;;;;14.80;85.10;;;;;;5051777;28;19909;-74
2023/12/09 11:04:33;;;;;;;;;;;14.80;85.10;;;;;;5052642;28;19952;-76
2023/12/09 11:07:02;;;;;;;;;;;14.70;85.20;;;;;;5052655;28;19970;-74
2023/12/09 11:09:27;;;;;;;;;;;14.70;85.60;;;;;;5052556;28;19909;-73
2023/12/09 11:11:54;;;;;;;;;;;14.70;84.90;;;;;;5052436;28;20413;-73
2023/12/09 11:14:25;;;;;;;;;;;14.70;84.90;;;;;;5052781;28;19940;-76
2023/12/09 11:16:51;;;;;;;;;;;14.80;85.80;;;;;;5052849;28;20287;-75
2023/12/09 11:19:17;;;;;;;;;;;14.70;85.20;;;;;;5052743;28;19909;-76
2023/12/09 11:21:44;;;;;;;;;;;14.70;85.60;;;;;;5052610;28;19913;-75
2023/12/09 11:24:11;;;;;;;;;;;14.70;85.50;;;;;;5052446;28;19968;-75
2023/12/09 11:26:39;;;;;;;;;;;14.80;84.90;;;;;;5052536;28;19909;-75
2023/12/09 11:29:05;;;;;;;;;;;14.70;85.10;;;;;;5052660;28;19913;-73
2023/12/09 11:31:44;;;;;;;;;;;14.70;85.00;;;;;;5052617;28;19909;-74
2023/12/09 11:34:11;;;;;;;;;;;14.70;84.80;;;;;;5052274;28;20012;-75
2023/12/09 11:36:38;;;;;;;;;;;14.70;84.90;;;;;;5052559;28;20331;-73
2023/12/09 11:39:06;;;;;;;;;;;14.70;84.90;;;;;;5052509;28;20267;-74
2023/12/09 11:41:39;;;;;;;;;;;14.80;85.80;;;;;;5052540;28;19909;-76
2023/12/09 11:44:07;;;;;;;;;;;14.70;84.80;;;;;;5052507;28;19963;-73
2023/12/09 11:46:34;;;;;;;;;;;14.70;84.90;;;;;;5052114;28;20410;-73
2023/12/09 11:49:00;;;;;;;;;;;14.60;86.40;;;;;;5052980;28;19913;-73
2023/12/09 11:51:27;;;;;;;;;;;14.70;85.00;;;;;;5052433;28;20275;-73
2023/12/09 11:53:53;;;;;;;;;;;14.70;85.10;;;;;;5051941;28;20363;-71
2023/12/09 11:56:19;;;;;;;;;;;14.60;84.90;;;;;;5052483;28;19916;-73
2023/12/09 11:58:45;;;;;;;;;;;14.70;85.30;;;;;;5052382;28;19908;-73
2023/12/09 12:01:11;;;;;;;;;;;14.70;84.90;;;;;;5052062;28;20286;-72
2023/12/09 12:03:37;;;;;;;;;;;14.70;85.00;;;;;;5052417;28;19909;-72
2023/12/09 12:06:03;;;;;;;;;;;14.70;85.20;;;;;;5051902;28;19909;-72
2023/12/09 12:08:29;;;;;;;;;;;14.60;84.50;;;;;;5052313;28;19945;-72
2023/12/09 12:10:55;;;;;;;;;;;14.70;85.60;;;;;;5051931;28;20394;-72
2023/12/09 12:13:21;;;;;;;;;;;14.70;85.20;;;;;;5051044;28;19944;-72
2023/12/09 12:15:48;;;;;;;;;;;14.70;85.30;;;;;;5033943;28;19943;-74
2023/12/09 12:18:14;;;;;;;;;;;14.70;85.00;;;;;;5050756;28;20418;-72
2023/12/09 12:20:40;;;;;;;;;;;14.60;85.10;;;;;;5051887;28;19920;-76
2023/12/09 12:23:06;;;;;;;;;;;14.70;85.10;;;;;;5052055;28;19909;-77
2023/12/09 12:25:32;;;;;;;;;;;14.60;85.20;;;;;;5051606;28;19966;-75
2023/12/09 12:27:58;;;;;;;;;;;14.60;85.00;;;;;;5052079;28;19912;-75
2023/12/09 12:30:24;;;;;;;;;;;14.50;85.30;;;;;;5052098;28;19954;-75
2023/12/09 12:32:54;;;;;;;;;;;14.60;85.40;;;;;;5051767;28;20405;-75
2023/12/09 12:35:22;;;;;;;;;;;14.60;85.10;;;;;;5050720;28;19921;-75
2023/12/09 12:37:48;;;;;;;;;;;14.60;85.30;;;;;;5052242;28;19909;-75
2023/12/09 12:40:14;;;;;;;;;;;14.60;85.30;;;;;;5055608;28;20256;-75
2023/12/09 12:42:41;;;;;;;;;;;14.60;85.50;;;;;;5055216;28;19912;-73
2023/12/09 12:45:21;;;;;;;;;;;14.50;85.30;;;;;;5055417;28;19915;-74
2023/12/09 12:47:47;;;;;;;;;;;14.70;85.30;;;;;;5055424;28;19916;-73
2023/12/09 12:50:14;;;;;;;;;;;14.60;85.60;;;;;;5055305;28;20286;-74
2023/12/09 12:52:40;;;;;;;;;;;14.60;85.20;;;;;;5055309;28;19920;-74
2023/12/09 12:55:09;;;;;;;;;;;14.60;85.20;;;;;;5055332;28;20371;-73
2023/12/09 12:57:35;;;;;;;;;;;14.50;84.10;;;;;;5055155;28;19909;-72
2023/12/09 13:00:03;;;;;;;;;;;14.60;85.60;;;;;;5055238;28;19970;-73
2023/12/09 13:02:32;;;;;;;;;;;14.50;85.20;;;;;;5054982;28;19975;-72
2023/12/09 13:04:58;;;;;;;;;;;14.50;85.10;;;;;;5054945;28;19909;-72
2023/12/09 13:07:24;;;;;;;;;;;14.60;85.30;;;;;;5054962;28;19954;-72
2023/12/09 13:09:50;;;;;;;;;;;14.60;85.60;;;;;;5054951;28;20000;-72
2023/12/09 13:12:16;;;;;;;;;;;14.50;85.60;;;;;;5054922;28;19909;-72
2023/12/09 13:14:42;;;;;;;;;;;14.60;85.20;;;;;;5054394;28;19970;-72
2023/12/09 13:17:09;;;;;;;;;;;14.50;85.40;;;;;;5054852;28;20011;-72
2023/12/09 13:19:35;;;;;;;;;;;14.50;85.00;;;;;;5054792;28;20084;-72
2023/12/09 13:22:02;;;;;;;;;;;14.50;85.30;;;;;;5054371;28;19916;-72
2023/12/09 13:24:28;;;;;;;;;;;14.60;85.00;;;;;;5054707;28;19921;-72
2023/12/09 13:26:53;;;;;;;;;;;14.50;85.20;;;;;;5054329;28;20367;-72
2023/12/09 13:29:19;;;;;;;;;;;14.50;85.40;;;;;;5054319;28;19908;-72
2023/12/09 13:31:45;;;;;;;;;;;14.50;85.40;;;;;;5054458;28;19908;-72
2023/12/09 13:34:11;;;;;;;;;;;14.50;85.20;;;;;;5054049;28;20372;-74
2023/12/09 13:36:39;;;;;;;;;;;14.50;85.30;;;;;;5054154;28;19917;-74
2023/12/09 13:39:05;;;;;;;;;;;14.50;85.20;;;;;;5054117;28;19913;-76
2023/12/09 13:41:31;;;;;;;;;;;14.50;86.00;;;;;;5053956;28;19909;-75
2023/12/09 13:43:57;;;;;;;;;;;14.40;85.70;;;;;;5054050;28;20378;-74
2023/12/09 13:46:23;;;;;;;;;;;14.40;85.70;;;;;;5053824;28;19909;-73
2023/12/09 13:48:49;;;;;;;;;;;14.50;85.40;;;;;;5053990;28;19916;-74
2023/12/09 13:51:15;;;;;;;;;;;14.40;85.50;;;;;;5054587;28;19909;-72
2023/12/09 13:53:42;;;;;;;;;;;14.50;85.80;;;;;;5054019;28;19917;-74
2023/12/09 13:56:08;;;;;;;;;;;14.60;86.00;;;;;;5053506;28;19983;-74
2023/12/09 13:58:34;;;;;;;;;;;14.50;85.50;;;;;;5053414;28;20368;-75
2023/12/09 14:01:01;;;;;;;;;;;14.40;85.70;;;;;;5053503;28;19913;-74
2023/12/09 14:03:28;;;;;;;;;;;14.50;85.80;;;;;;5053753;28;19909;-76
2023/12/09 14:05:54;;;;;;;;;;;14.50;85.70;;;;;;5053384;28;19908;-74
2023/12/09 14:08:20;;;;;;;;;;;14.40;85.70;;;;;;5053701;28;19920;-75
2023/12/09 14:10:46;;;;;;;;;;;14.40;85.80;;;;;;5053252;28;19956;-75
2023/12/09 14:13:13;;;;;;;;;;;14.40;85.70;;;;;;5053264;28;19909;-75